Time;durP1;ratioP1;P1;durP2;ratioP2;P2;SDS_P1;SDS_P2;PMS_P1;PMS_P2;Temp;Humidity;BMP_temperature;BMP_pressure;BME280_temperature;BME280_humidity;BME280_pressure;Samples;Min_cycle;Max_cycle;Signal;HPM_P1;HPM_P2
2023/07/03 00:00:57;;;;;;;;;17.33;14.67;;;;;21.72;44.13;100083.34;110237;1264;18561;-39
2023/07/03 00:03:44;;;;;;;;;25.00;16.50;;;;;21.69;44.07;100087.29;110122;1264;20961;-41
2023/07/03 00:06:12;;;;;;;;;16.00;14.00;;;;;21.69;44.19;100086.73;110166;1250;18634;-41
2023/07/03 00:08:39;;;;;;;;;14.00;13.00;;;;;21.67;44.15;100086.20;110191;1264;19165;-40
2023/07/03 00:11:06;;;;;;;;;19.00;16.00;;;;;21.68;44.16;100086.32;110251;1265;21941;-40
2023/07/03 00:13:34;;;;;;;;;17.00;14.00;;;;;21.68;44.19;100090.44;110262;1250;21420;-40
2023/07/03 00:16:01;;;;;;;;;14.00;13.33;;;;;21.68;44.27;100085.02;110261;1251;18601;-40
2023/07/03 00:18:29;;;;;;;;;13.67;13.00;;;;;21.65;44.05;100090.70;110189;1250;21313;-40
2023/07/03 00:20:57;;;;;;;;;14.00;14.00;;;;;21.60;44.12;100089.66;110238;1251;20333;-41
2023/07/03 00:23:24;;;;;;;;;15.33;14.00;;;;;21.62;44.16;100090.67;110140;1252;18573;-41
2023/07/03 00:25:51;;;;;;;;;16.00;16.00;;;;;21.63;44.09;100096.81;110239;1265;22025;-40
2023/07/03 00:28:19;;;;;;;;;15.00;14.00;;;;;21.57;43.98;100095.05;110194;1250;20485;-40
2023/07/03 00:30:46;;;;;;;;;14.00;13.00;;;;;21.53;44.24;100098.33;110161;1249;20340;-39
2023/07/03 00:33:13;;;;;;;;;20.00;16.00;;;;;21.47;44.10;100098.62;110243;1249;22591;-39
2023/07/03 00:35:41;;;;;;;;;16.00;14.00;;;;;21.46;44.28;100100.30;110234;1259;18737;-39
2023/07/03 00:38:08;;;;;;;;;17.00;16.00;;;;;21.50;44.37;100101.48;110161;1264;20478;-39
2023/07/03 00:40:35;;;;;;;;;13.00;13.00;;;;;21.51;44.49;100103.22;110236;1251;20746;-38
2023/07/03 00:43:03;;;;;;;;;20.00;17.00;;;;;21.49;44.44;100103.63;110170;1251;19968;-38
2023/07/03 00:45:31;;;;;;;;;13.00;11.00;;;;;21.46;44.57;100103.09;110193;1251;20058;-39
2023/07/03 00:47:58;;;;;;;;;17.00;13.00;;;;;21.50;44.36;100104.44;110223;1264;18102;-38
2023/07/03 00:50:25;;;;;;;;;16.50;15.00;;;;;21.50;44.36;100106.33;110222;1259;18561;-39
2023/07/03 00:52:53;;;;;;;;;14.00;11.00;;;;;21.53;44.44;100107.86;110204;1250;19272;-38
2023/07/03 00:55:20;;;;;;;;;14.00;14.00;;;;;21.55;44.49;100108.30;110209;1265;18140;-39
2023/07/03 00:57:47;;;;;;;;;17.00;16.00;;;;;21.54;44.35;100105.61;110133;1251;20313;-38
2023/07/03 01:00:15;;;;;;;;;19.00;16.00;;;;;21.50;44.55;100108.17;110141;1250;22515;-40
2023/07/03 01:02:42;;;;;;;;;17.00;17.00;;;;;21.46;44.31;100104.40;110071;1250;18218;-40
2023/07/03 01:05:10;;;;;;;;;16.00;14.00;;;;;21.46;44.63;100105.49;110112;1251;22241;-41
2023/07/03 01:07:37;;;;;;;;;14.33;13.00;;;;;21.47;44.30;100103.48;110211;1251;20018;-40
2023/07/03 01:10:04;;;;;;;;;21.50;16.00;;;;;21.48;44.46;100102.83;110219;1264;21940;-41
2023/07/03 01:12:31;;;;;;;;;15.00;14.00;;;;;21.44;44.43;100108.04;110195;1259;21786;-38
2023/07/03 01:14:59;;;;;;;;;14.00;13.00;;;;;21.48;44.38;100105.75;110261;1251;20059;-40
2023/07/03 01:17:26;;;;;;;;;17.00;13.50;;;;;21.37;44.69;100108.56;110238;1251;21925;-39
2023/07/03 01:19:54;;;;;;;;;11.00;11.00;;;;;21.31;44.77;100108.09;110279;1258;19726;-39
2023/07/03 01:22:21;;;;;;;;;17.00;16.00;;;;;21.29;44.74;100107.13;110243;1265;18569;-39
2023/07/03 01:24:49;;;;;;;;;14.00;14.00;;;;;21.29;44.88;100108.34;110117;1265;18183;-39
2023/07/03 01:27:16;;;;;;;;;14.00;13.00;;;;;21.34;44.78;100109.58;110162;1264;18736;-39
2023/07/03 01:29:44;;;;;;;;;14.00;13.00;;;;;21.37;44.70;100107.38;110208;1264;18614;-40
2023/07/03 01:32:11;;;;;;;;;13.50;13.50;;;;;21.28;44.91;100105.75;110245;1249;18925;-39
2023/07/03 01:34:38;;;;;;;;;16.67;13.67;;;;;21.24;44.85;100108.79;110139;1264;19905;-40
2023/07/03 01:37:06;;;;;;;;;13.67;13.00;;;;;21.26;44.81;100112.20;110255;1264;18842;-39
2023/07/03 01:39:34;;;;;;;;;17.00;14.00;;;;;21.30;44.87;100109.11;110287;1264;18111;-40
2023/07/03 01:42:01;;;;;;;;;16.50;14.00;;;;;21.32;44.89;100112.58;110275;1265;18590;-40
2023/07/03 01:44:29;;;;;;;;;18.00;16.00;;;;;21.17;45.15;100113.36;110274;1265;18784;-40
2023/07/03 01:46:56;;;;;;;;;17.00;15.33;;;;;21.14;45.12;100115.05;110187;1251;22422;-40
2023/07/03 01:49:23;;;;;;;;;14.00;14.00;;;;;21.19;45.09;100115.15;110192;1251;19955;-40
2023/07/03 01:51:51;;;;;;;;;11.00;10.50;;;;;21.12;45.16;100112.02;110233;1265;21849;-40
2023/07/03 01:54:18;;;;;;;;;17.00;16.00;;;;;21.08;45.13;100115.50;110285;1264;19421;-40
2023/07/03 01:56:49;;;;;;;;;14.00;13.00;;;;;21.06;45.42;100116.16;110274;1250;20407;-40
2023/07/03 01:59:17;;;;;;;;;22.00;17.00;;;;;21.05;45.32;100118.41;110265;1259;19914;-41
2023/07/03 02:01:45;;;;;;;;;14.50;13.00;;;;;21.07;45.53;100120.06;110214;1251;19559;-40
2023/07/03 02:04:12;;;;;;;;;16.00;16.00;;;;;21.13;45.47;100119.73;110221;1264;21699;-40
2023/07/03 02:06:40;;;;;;;;;17.67;14.00;;;;;21.12;45.44;100119.73;110162;1264;18566;-40
2023/07/03 02:09:07;;;;;;;;;13.00;11.00;;;;;21.10;45.51;100122.42;110231;1250;19495;-40
2023/07/03 02:11:35;;;;;;;;;11.00;11.00;;;;;21.12;45.66;100124.55;110216;1249;21545;-39
2023/07/03 02:14:02;;;;;;;;;17.67;16.00;;;;;21.11;45.77;100124.42;110221;1259;19976;-39
2023/07/03 02:16:30;;;;;;;;;19.67;13.67;;;;;21.07;45.72;100121.52;110253;1264;19180;-41
2023/07/03 02:18:58;;;;;;;;;17.00;14.00;;;;;21.04;45.92;100122.17;110275;1264;22119;-40
2023/07/03 02:21:26;;;;;;;;;25.00;23.00;;;;;21.00;45.87;100120.95;110239;1251;19995;-41
2023/07/03 02:23:53;;;;;;;;;26.00;23.50;;;;;20.94;46.25;100121.11;110236;1249;19462;-41
2023/07/03 02:26:20;;;;;;;;;19.67;17.00;;;;;20.94;46.21;100120.36;110190;1249;21194;-42
2023/07/03 02:28:48;;;;;;;;;20.00;19.00;;;;;20.95;46.27;100120.14;110200;1265;18596;-41
2023/07/03 02:31:15;;;;;;;;;16.00;14.00;;;;;20.95;46.20;100120.73;110200;1265;19305;-41
2023/07/03 02:33:43;;;;;;;;;24.00;19.00;;;;;21.00;46.04;100124.72;110251;1265;19792;-40
2023/07/03 02:36:10;;;;;;;;;22.00;20.50;;;;;20.98;46.02;100122.44;110215;1265;21939;-40
2023/07/03 02:38:38;;;;;;;;;23.00;19.00;;;;;20.96;46.17;100118.31;110226;1265;19500;-39
2023/07/03 02:41:05;;;;;;;;;19.00;17.00;;;;;20.91;46.19;100120.48;110169;1251;20467;-39
2023/07/03 02:43:32;;;;;;;;;21.00;19.00;;;;;20.86;46.43;100119.86;110254;1251;23179;-39
2023/07/03 02:46:00;;;;;;;;;17.00;16.00;;;;;20.82;46.31;100123.56;110261;1251;19634;-39
2023/07/03 02:48:27;;;;;;;;;17.00;14.00;;;;;20.78;46.32;100122.17;110222;1259;19936;-40
2023/07/03 02:50:55;;;;;;;;;17.00;14.00;;;;;20.70;46.31;100123.77;110199;1265;19076;-40
2023/07/03 02:53:22;;;;;;;;;16.00;14.00;;;;;20.76;46.24;100127.27;110245;1251;19539;-39
2023/07/03 02:55:50;;;;;;;;;16.00;14.00;;;;;20.75;46.29;100126.61;110259;1251;22024;-39
2023/07/03 02:58:17;;;;;;;;;13.50;12.00;;;;;20.79;46.38;100127.21;110247;1250;20060;-39
2023/07/03 03:00:44;;;;;;;;;13.67;13.67;;;;;20.81;46.09;100126.74;110232;1251;19896;-39
2023/07/03 03:03:13;;;;;;;;;20.50;16.50;;;;;20.77;46.08;100129.50;110167;1264;19934;-39
2023/07/03 03:05:41;;;;;;;;;14.00;14.00;;;;;20.71;46.33;100130.89;110249;1265;18577;-38
2023/07/03 03:08:11;;;;;;;;;16.00;16.00;;;;;20.75;46.20;100130.81;110222;1249;19394;-39
2023/07/03 03:10:38;;;;;;;;;18.33;16.67;;;;;20.70;46.21;100132.47;110254;1260;19887;-39
2023/07/03 03:13:05;;;;;;;;;20.00;20.00;;;;;20.70;46.25;100134.70;110241;1265;19253;-39
2023/07/03 03:15:34;;;;;;;;;16.00;14.00;;;;;20.61;46.13;100122.59;110285;1264;18126;-39
2023/07/03 03:18:01;;;;;;;;;17.00;14.00;;;;;20.62;46.30;100132.38;110278;1256;20020;-39
2023/07/03 03:20:29;;;;;;;;;17.00;16.00;;;;;20.62;46.18;100130.23;110293;1265;18958;-39
2023/07/03 03:22:56;;;;;;;;;14.00;14.00;;;;;20.66;46.16;100134.44;110236;1250;19433;-39
2023/07/03 03:25:23;;;;;;;;;14.00;13.00;;;;;20.75;45.89;100136.77;110191;1251;19990;-39
2023/07/03 03:27:51;;;;;;;;;19.00;16.00;;;;;20.60;46.17;100133.19;110205;1265;19952;-39
2023/07/03 03:30:18;;;;;;;;;16.50;13.50;;;;;20.64;46.21;100134.87;110219;1258;19366;-39
2023/07/03 03:32:46;;;;;;;;;16.00;14.00;;;;;20.55;46.30;100130.77;110211;1251;19975;-39
2023/07/03 03:35:13;;;;;;;;;14.00;13.67;;;;;20.64;46.17;100136.03;110222;1251;21911;-39
2023/07/03 03:37:40;;;;;;;;;18.33;14.00;;;;;20.64;46.28;100134.33;110288;1265;19689;-39
2023/07/03 03:40:09;;;;;;;;;17.00;13.50;;;;;20.70;46.32;100137.83;110272;1250;18901;-39
2023/07/03 03:42:36;;;;;;;;;14.00;13.00;;;;;20.83;45.85;100135.98;110211;1250;21948;-39
2023/07/03 03:45:04;;;;;;;;;18.00;16.00;;;;;20.84;45.95;100132.39;110206;1265;18077;-40
2023/07/03 03:47:31;;;;;;;;;21.67;16.00;;;;;20.71;46.05;100127.15;110180;1251;20175;-40
2023/07/03 03:49:59;;;;;;;;;14.67;14.67;;;;;20.67;46.30;100136.36;110205;1250;23140;-39
2023/07/03 03:52:26;;;;;;;;;20.00;17.00;;;;;20.61;46.55;100132.26;110198;1265;19713;-39
2023/07/03 03:54:54;;;;;;;;;18.33;17.67;;;;;20.58;46.73;100132.94;110227;1265;20554;-39
2023/07/03 03:57:21;;;;;;;;;23.00;20.00;;;;;20.61;46.54;100130.32;110234;1251;22011;-40
2023/07/03 03:59:48;;;;;;;;;22.50;20.00;;;;;20.59;46.38;100134.98;110271;1264;18156;-39
2023/07/03 04:02:16;;;;;;;;;25.67;22.00;;;;;20.52;46.42;100130.49;110253;1261;18605;-39
2023/07/03 04:04:43;;;;;;;;;20.00;19.00;;;;;20.59;46.46;100126.30;110218;1264;18590;-40
2023/07/03 04:07:10;;;;;;;;;20.00;19.00;;;;;20.65;46.48;100126.63;110213;1264;18144;-39
2023/07/03 04:09:38;;;;;;;;;19.00;17.00;;;;;20.72;46.20;100125.46;110229;1264;18615;-39
2023/07/03 04:12:05;;;;;;;;;27.00;26.00;;;;;20.72;46.06;100133.48;110280;1259;20429;-39
2023/07/03 04:14:33;;;;;;;;;32.00;29.00;;;;;20.70;46.28;100129.33;110286;1251;21912;-41
2023/07/03 04:17:01;;;;;;;;;31.00;28.00;;;;;20.70;46.44;100128.20;110237;1264;18951;-39
2023/07/03 04:19:28;;;;;;;;;28.00;27.00;;;;;20.76;46.40;100134.43;110256;1265;18587;-39
2023/07/03 04:21:56;;;;;;;;;35.50;28.00;;;;;20.78;46.27;100135.30;110258;1251;19699;-39
2023/07/03 04:24:24;;;;;;;;;20.00;20.00;;;;;20.77;46.46;100131.09;110278;1264;18676;-39
2023/07/03 04:26:54;;;;;;;;;32.00;29.00;;;;;20.71;46.80;100133.70;110236;1251;20090;-38
2023/07/03 04:29:22;;;;;;;;;26.00;22.00;;;;;20.78;46.48;100129.67;110262;1251;21551;-39
2023/07/03 04:31:49;;;;;;;;;35.00;30.00;;;;;20.89;46.37;100130.17;110268;1265;18752;-39
2023/07/03 04:34:17;;;;;;;;;24.00;20.00;;;;;20.78;46.46;100123.67;110259;1259;18551;-38
2023/07/03 04:36:45;;;;;;;;;26.33;20.33;;;;;20.76;46.51;100125.88;110284;1264;19824;-40
2023/07/03 04:39:12;;;;;;;;;17.00;14.00;;;;;20.78;46.60;100129.38;110257;1250;18538;-41
2023/07/03 04:41:39;;;;;;;;;20.00;17.50;;;;;20.81;46.51;100127.66;110197;1251;20105;-40
2023/07/03 04:44:12;;;;;;;;;20.00;16.00;;;;;20.82;46.48;100130.30;110199;1259;19410;-41
2023/07/03 04:46:39;;;;;;;;;17.00;16.00;;;;;20.75;46.57;100131.32;110212;1259;19935;-41
2023/07/03 04:49:06;;;;;;;;;19.00;16.00;;;;;20.78;46.44;100130.27;110092;1250;21970;-41
2023/07/03 04:51:34;;;;;;;;;14.67;11.67;;;;;20.76;46.56;100131.23;110210;1250;22154;-41
2023/07/03 04:54:03;;;;;;;;;13.00;12.00;;;;;20.68;46.90;100132.23;110270;1264;18620;-41
2023/07/03 04:56:30;;;;;;;;;21.00;20.00;;;;;20.78;46.85;100131.89;110269;1265;21946;-40
2023/07/03 04:58:58;;;;;;;;;29.33;26.33;;;;;20.73;46.81;100126.27;110175;1265;18124;-41
2023/07/03 05:01:25;;;;;;;;;23.00;20.50;;;;;20.88;46.73;100129.49;110230;1251;19863;-41
2023/07/03 05:03:53;;;;;;;;;22.67;18.33;;;;;21.01;46.52;100134.00;110240;1265;18614;-40
2023/07/03 05:06:20;;;;;;;;;19.00;16.00;;;;;21.12;46.25;100129.58;110239;1265;18125;-41
2023/07/03 05:08:47;;;;;;;;;19.33;16.33;;;;;21.06;46.30;100126.71;110234;1264;20632;-40
2023/07/03 05:11:15;;;;;;;;;17.00;16.50;;;;;21.02;46.48;100126.45;110255;1265;18917;-40
2023/07/03 05:13:42;;;;;;;;;23.50;20.00;;;;;21.14;46.29;100131.95;110190;1264;18067;-40
2023/07/03 05:16:10;;;;;;;;;26.00;23.00;;;;;20.95;46.44;100134.27;110196;1265;18593;-39
2023/07/03 05:18:37;;;;;;;;;30.00;29.00;;;;;20.83;47.01;100139.48;110226;1265;22079;-40
2023/07/03 05:21:06;;;;;;;;;31.00;28.67;;;;;20.83;46.95;100139.61;110256;1264;18137;-39
2023/07/03 05:23:33;;;;;;;;;26.50;23.00;;;;;20.98;47.16;100144.44;110194;1264;18561;-39
2023/07/03 05:26:01;;;;;;;;;23.00;20.00;;;;;21.30;46.52;100144.33;110280;1264;19935;-40
2023/07/03 05:28:28;;;;;;;;;20.00;17.00;;;;;21.55;46.14;100143.54;110259;1265;21541;-40
2023/07/03 05:30:56;;;;;;;;;21.00;18.00;;;;;21.71;46.01;100144.77;110277;1264;18586;-39
2023/07/03 05:33:23;;;;;;;;;18.00;18.00;;;;;21.82;45.74;100144.59;110291;1265;20319;-40
2023/07/03 05:35:51;;;;;;;;;13.50;12.00;;;;;21.90;45.81;100151.83;110248;1265;18118;-40
2023/07/03 05:38:18;;;;;;;;;14.00;12.00;;;;;21.88;45.75;100157.55;110265;1250;20675;-40
2023/07/03 05:40:46;;;;;;;;;20.00;17.00;;;;;21.93;46.01;100163.05;110231;1264;18566;-40
2023/07/03 05:43:14;;;;;;;;;14.33;13.00;;;;;21.93;46.07;100160.84;110165;1250;19948;-40
2023/07/03 05:45:41;;;;;;;;;14.67;12.00;;;;;21.90;46.06;100159.21;110180;1264;18587;-41
2023/07/03 05:48:09;;;;;;;;;14.00;12.00;;;;;21.81;46.16;100157.30;110143;1250;23022;-40
2023/07/03 05:50:36;;;;;;;;;12.00;11.00;;;;;21.88;46.28;100148.23;110157;1265;19311;-40
2023/07/03 05:53:04;;;;;;;;;12.00;12.00;;;;;21.88;46.17;100151.55;110209;1264;18849;-41
2023/07/03 05:55:31;;;;;;;;;19.00;15.00;;;;;21.86;46.19;100154.52;110177;1265;18591;-40
2023/07/03 05:57:59;;;;;;;;;13.67;12.00;;;;;21.87;45.92;100153.27;110158;1265;18518;-41
2023/07/03 06:00:30;;;;;;;;;14.50;13.00;;;;;21.85;45.98;100155.65;110107;1264;20287;-40
2023/07/03 06:02:58;;;;;;;;;15.00;12.00;;;;;21.85;45.94;100157.91;110123;1264;18979;-40
2023/07/03 06:05:26;;;;;;;;;14.00;12.00;;;;;21.90;45.73;100153.85;110318;1256;19893;-40
2023/07/03 06:07:54;;;;;;;;;14.00;12.00;;;;;21.86;45.65;100154.11;110265;1250;23289;-40
2023/07/03 06:10:23;;;;;;;;;11.50;11.50;;;;;21.95;45.52;100153.63;110197;1251;20056;-39
2023/07/03 06:12:51;;;;;;;;;14.00;12.00;;;;;21.95;45.52;100153.25;110183;1265;19620;-39
2023/07/03 06:15:19;;;;;;;;;12.33;11.00;;;;;21.96;45.58;100152.84;110185;1256;19779;-40
2023/07/03 06:17:46;;;;;;;;;12.00;11.00;;;;;21.97;45.51;100155.20;110189;1264;18590;-40
2023/07/03 06:20:13;;;;;;;;;16.00;11.50;;;;;22.03;45.47;100159.90;110211;1259;19387;-39
2023/07/03 06:22:41;;;;;;;;;10.50;9.50;;;;;22.08;45.32;100165.27;110195;1249;18721;-40
2023/07/03 06:25:08;;;;;;;;;14.50;9.50;;;;;22.08;45.19;100159.90;110118;1250;20882;-40
2023/07/03 06:27:36;;;;;;;;;13.33;11.33;;;;;22.10;45.17;100159.14;110182;1257;19662;-40
2023/07/03 06:30:03;;;;;;;;;12.00;12.00;;;;;22.14;45.32;100153.66;110167;1257;20146;-40
2023/07/03 06:32:31;;;;;;;;;9.00;9.00;;;;;22.15;44.89;100155.52;110194;1251;21959;-40
2023/07/03 06:34:58;;;;;;;;;14.00;12.00;;;;;22.22;44.97;100151.86;110186;1264;17884;-40
2023/07/03 06:37:25;;;;;;;;;15.00;11.00;;;;;22.30;44.67;100151.14;110170;1251;19985;-41
2023/07/03 06:39:53;;;;;;;;;14.00;12.00;;;;;22.33;44.56;100145.04;110241;1259;19870;-40
2023/07/03 06:42:20;;;;;;;;;15.00;9.00;;;;;22.37;44.33;100140.16;110084;1251;20013;-40
2023/07/03 06:44:48;;;;;;;;;11.00;11.00;;;;;22.44;43.92;100144.72;110033;1259;21062;-40
2023/07/03 06:47:15;;;;;;;;;12.00;12.00;;;;;22.52;43.72;100151.73;109939;1266;18592;-39
2023/07/03 06:49:43;;;;;;;;;9.00;8.00;;;;;22.52;43.52;100149.00;109990;1251;20451;-39
2023/07/03 06:52:10;;;;;;;;;11.00;11.00;;;;;22.33;43.35;100147.11;109991;1251;20301;-39
2023/07/03 06:54:37;;;;;;;;;11.00;11.00;;;;;22.37;42.96;100153.60;110024;1251;19724;-39
2023/07/03 06:57:05;;;;;;;;;12.00;11.00;;;;;22.45;43.02;100145.48;109903;1266;19331;-39
2023/07/03 06:59:33;;;;;;;;;11.50;10.00;;;;;22.49;42.72;100149.54;109984;1259;19930;-40
2023/07/03 07:02:00;;;;;;;;;14.00;12.00;;;;;22.57;42.62;100144.86;109890;1266;176768;-40
2023/07/03 07:04:27;;;;;;;;;15.00;12.00;;;;;22.60;42.73;100143.08;110021;1259;19436;-39
2023/07/03 07:06:55;;;;;;;;;8.33;8.00;;;;;22.53;42.30;100143.30;110023;1266;19966;-40
2023/07/03 07:09:23;;;;;;;;;12.67;12.00;;;;;22.55;41.66;100139.27;110038;1251;20049;-40
2023/07/03 07:11:50;;;;;;;;;14.00;11.50;;;;;22.60;41.10;100138.46;110026;1266;18108;-40
2023/07/03 07:14:18;;;;;;;;;12.00;11.00;;;;;22.60;41.35;100141.73;110022;1259;19878;-39
2023/07/03 07:16:46;;;;;;;;;9.00;9.00;;;;;22.60;41.77;100141.70;110023;1251;20097;-38
2023/07/03 07:19:13;;;;;;;;;11.00;11.00;;;;;22.61;41.70;100138.98;110041;1251;19339;-41
2023/07/03 07:21:41;;;;;;;;;8.50;8.50;;;;;22.61;41.64;100139.30;110063;1251;19962;-41
2023/07/03 07:24:08;;;;;;;;;11.00;8.00;;;;;22.64;41.75;100139.30;110034;1258;19890;-40
2023/07/03 07:26:36;;;;;;;;;11.00;11.00;;;;;22.71;41.48;100144.67;110035;1266;19646;-40
2023/07/03 07:29:04;;;;;;;;;14.33;11.33;;;;;22.82;41.55;100140.43;110004;1266;18415;-40
2023/07/03 07:31:32;;;;;;;;;12.50;11.50;;;;;22.94;41.12;100141.98;110035;1266;18697;-41
2023/07/03 07:33:59;;;;;;;;;9.00;9.00;;;;;22.95;41.01;100145.80;110078;1251;19473;-41
2023/07/03 07:36:27;;;;;;;;;12.00;12.00;;;;;22.70;40.48;100151.23;110025;1251;20103;-40
2023/07/03 07:38:54;;;;;;;;;8.00;7.00;;;;;22.49;40.04;100153.86;110049;1266;18197;-41
2023/07/03 07:41:22;;;;;;;;;8.50;8.50;;;;;22.38;39.54;100156.66;110008;1266;17920;-41
2023/07/03 07:43:49;;;;;;;;;11.00;9.00;;;;;22.26;39.36;100158.47;110035;1259;19008;-42
2023/07/03 07:46:17;;;;;;;;;11.00;9.00;;;;;22.24;39.35;100167.83;110024;1251;21075;-40
2023/07/03 07:48:45;;;;;;;;;8.50;8.00;;;;;22.20;39.61;100171.45;110016;1266;20946;-39
2023/07/03 07:51:13;;;;;;;;;9.00;9.00;;;;;22.15;39.84;100168.82;110013;1251;19972;-39
2023/07/03 07:53:40;;;;;;;;;;;;;;;22.09;39.98;100173.17;110036;1259;20690;-40
2023/07/03 07:56:08;;;;;;;;;11.00;8.00;;;;;22.10;40.14;100173.87;110045;1258;19193;-40
2023/07/03 07:58:35;;;;;;;;;9.00;8.50;;;;;22.04;40.48;100174.52;110014;1253;20000;-40
2023/07/03 08:01:02;;;;;;;;;8.00;8.00;;;;;21.99;40.75;100180.19;109990;1251;21450;-41
2023/07/03 08:03:30;;;;;;;;;9.00;9.00;;;;;21.97;40.75;100178.48;110001;1251;19415;-41
2023/07/03 08:05:58;;;;;;;;;11.00;10.50;;;;;21.98;40.96;100185.84;109999;1259;18575;-40
2023/07/03 08:08:26;;;;;;;;;10.00;10.00;;;;;21.96;41.10;100183.44;110003;1266;21793;-40
2023/07/03 08:10:54;;;;;;;;;7.00;7.00;;;;;21.90;40.94;100187.13;109999;1251;19514;-40
2023/07/03 08:13:21;;;;;;;;;8.67;8.67;;;;;21.89;41.15;100188.64;110018;1251;19905;-40
2023/07/03 08:15:49;;;;;;;;;10.00;10.00;;;;;21.88;41.10;100187.61;110020;1251;20361;-40
2023/07/03 08:18:16;;;;;;;;;12.00;11.00;;;;;21.85;41.21;100183.86;110015;1251;19591;-40
2023/07/03 08:20:43;;;;;;;;;11.00;10.00;;;;;21.85;41.55;100188.27;110012;1251;22057;-40
2023/07/03 08:23:11;;;;;;;;;11.00;10.50;;;;;21.87;41.71;100182.57;109985;1251;19955;-40
2023/07/03 08:25:39;;;;;;;;;11.50;10.50;;;;;21.86;41.79;100186.25;110018;1266;18265;-40
2023/07/03 08:28:06;;;;;;;;;10.00;7.50;;;;;21.84;41.65;100191.63;110007;1259;18835;-40
2023/07/03 08:30:34;;;;;;;;;12.50;11.00;;;;;21.85;41.49;100188.30;109941;1259;19826;-40
2023/07/03 08:33:01;;;;;;;;;8.00;8.00;;;;;21.92;41.64;100189.11;109918;1266;18055;-40
2023/07/03 08:35:28;;;;;;;;;13.50;11.00;;;;;21.95;41.67;100189.27;110031;1251;20072;-41
2023/07/03 08:37:56;;;;;;;;;14.00;10.00;;;;;21.94;41.81;100192.48;110010;1251;19626;-39
2023/07/03 08:40:23;;;;;;;;;13.50;11.00;;;;;21.95;42.02;100182.34;110048;1251;20557;-40
2023/07/03 08:42:51;;;;;;;;;10.00;10.00;;;;;21.99;42.37;100187.65;110064;1251;19897;-40
2023/07/03 08:45:19;;;;;;;;;12.67;10.67;;;;;21.98;42.18;100198.89;110013;1266;22674;-39
2023/07/03 08:47:47;;;;;;;;;10.50;10.00;;;;;21.99;41.81;100196.26;110035;1266;18114;-40
2023/07/03 08:50:14;;;;;;;;;10.00;8.00;;;;;22.03;41.95;100188.11;110030;1251;22858;-40
2023/07/03 08:52:41;;;;;;;;;12.00;10.00;;;;;22.11;41.91;100179.21;110046;1251;19975;-40
2023/07/03 08:55:09;;;;;;;;;12.00;11.00;;;;;22.24;42.09;100180.69;109978;1266;22539;-40
2023/07/03 08:57:36;;;;;;;;;11.50;9.00;;;;;22.40;42.06;100180.77;109939;1266;18881;-40
2023/07/03 09:00:05;;;;;;;;;9.00;8.00;;;;;22.49;42.15;100181.80;110047;1258;21024;-41
2023/07/03 09:02:32;;;;;;;;;13.33;11.33;;;;;22.56;42.17;100178.82;110048;1266;19470;-40
2023/07/03 09:05:01;;;;;;;;;11.00;11.00;;;;;22.72;42.57;100177.29;110034;1251;19960;-41
2023/07/03 09:07:28;;;;;;;;;10.00;9.00;;;;;22.87;42.51;100183.65;109990;1266;19905;-40
2023/07/03 09:09:56;;;;;;;;;11.50;10.00;;;;;22.99;42.18;100180.60;110028;1251;21545;-40
2023/07/03 09:12:26;;;;;;;;;11.00;9.00;;;;;23.02;42.18;100176.36;109981;1266;19056;-41
2023/07/03 09:14:57;;;;;;;;;11.00;11.00;;;;;23.08;41.86;100168.25;110038;1251;18599;-40
2023/07/03 09:17:24;;;;;;;;;14.00;12.00;;;;;23.15;41.54;100164.06;109999;1266;18150;-39
2023/07/03 09:19:53;;;;;;;;;11.00;11.00;;;;;23.26;41.56;100160.42;110013;1259;21933;-39
2023/07/03 09:22:20;;;;;;;;;31.50;25.00;;;;;23.31;41.50;100157.70;110044;1266;19184;-40
2023/07/03 09:24:49;;;;;;;;;28.00;25.50;;;;;23.23;41.59;100157.48;109996;1266;18887;-39
2023/07/03 09:27:17;;;;;;;;;36.50;28.00;;;;;23.27;41.30;100159.50;110049;1266;18885;-39
2023/07/03 09:29:45;;;;;;;;;36.00;29.00;;;;;23.28;41.17;100154.84;110006;1259;21488;-40
2023/07/03 09:32:15;;;;;;;;;27.00;25.00;;;;;23.26;41.03;100153.10;110026;1266;20073;-39
2023/07/03 09:34:45;;;;;;;;;13.00;13.00;;;;;23.35;41.19;100151.77;110015;1266;18794;-39
2023/07/03 09:37:13;;;;;;;;;12.50;12.00;;;;;23.38;41.21;100154.90;109991;1266;18636;-40
2023/07/03 09:39:41;;;;;;;;;13.00;12.50;;;;;23.34;40.68;100150.17;110041;1266;18843;-40
2023/07/03 09:42:09;;;;;;;;;14.50;14.50;;;;;23.36;40.99;100144.84;109994;1251;20029;-40
2023/07/03 09:44:37;;;;;;;;;13.50;12.50;;;;;23.45;41.23;100147.41;110048;1266;19997;-39
2023/07/03 09:47:05;;;;;;;;;13.00;13.00;;;;;23.53;41.34;100140.30;110056;1251;18500;-41
2023/07/03 09:49:35;;;;;;;;;15.00;13.00;;;;;23.63;41.42;100144.75;110031;1266;18727;-41
2023/07/03 09:52:04;;;;;;;;;15.50;15.00;;;;;23.68;41.20;100139.45;110023;1266;19976;-40
2023/07/03 09:54:33;;;;;;;;;12.00;12.00;;;;;23.56;40.66;100139.19;110033;1266;19305;-39
2023/07/03 09:57:03;;;;;;;;;15.00;15.00;;;;;23.54;40.89;100137.54;110048;1266;19787;-39
2023/07/03 09:59:30;;;;;;;;;16.00;15.00;;;;;23.51;40.91;100138.91;110055;1266;18650;-40
2023/07/03 10:01:58;;;;;;;;;13.00;12.00;;;;;23.46;41.03;100140.30;110002;1253;19473;-39
2023/07/03 10:04:26;;;;;;;;;16.33;15.00;;;;;23.51;41.24;100131.80;110035;1266;21520;-40
2023/07/03 10:06:54;;;;;;;;;16.00;15.00;;;;;23.74;41.42;100128.47;110028;1266;19181;-40
2023/07/03 10:09:24;;;;;;;;;16.50;16.50;;;;;23.81;41.38;100124.68;110030;1266;20655;-40
2023/07/03 10:11:53;;;;;;;;;12.50;12.50;;;;;23.77;41.24;100123.76;110046;1266;18598;-39
2023/07/03 10:14:21;;;;;;;;;17.00;16.00;;;;;23.64;41.02;100124.34;110042;1251;18875;-39
2023/07/03 10:16:51;;;;;;;;;19.00;15.00;;;;;23.60;41.18;100123.44;110053;1266;18884;-39
2023/07/03 10:19:20;;;;;;;;;16.00;16.00;;;;;23.80;41.19;100128.97;110049;1266;19468;-39
2023/07/03 10:21:50;;;;;;;;;20.00;17.00;;;;;23.75;41.27;100123.30;110035;1251;21316;-39
2023/07/03 10:24:23;;;;;;;;;20.00;19.00;;;;;23.64;41.04;100123.54;110003;1266;18103;-39
2023/07/03 10:26:53;;;;;;;;;19.50;17.00;;;;;23.51;41.21;100120.52;110047;1266;18565;-40
2023/07/03 10:29:24;;;;;;;;;15.50;15.00;;;;;23.52;41.46;100125.79;110064;1251;19189;-39
2023/07/03 10:31:52;;;;;;;;;16.00;16.00;;;;;23.49;41.33;100122.17;110063;1266;19480;-39
2023/07/03 10:34:22;;;;;;;;;19.00;19.00;;;;;23.42;41.16;100131.38;110024;1266;21986;-39
2023/07/03 10:36:50;;;;;;;;;20.67;18.67;;;;;23.33;41.00;100132.38;109926;1266;18608;-40
2023/07/03 10:39:31;;;;;;;;;13.00;12.67;;;;;23.30;41.15;100136.13;109984;1266;18330;-40
2023/07/03 10:41:59;;;;;;;;;18.00;15.00;;;;;23.24;40.95;100133.00;110031;1251;20246;-39
2023/07/03 10:44:29;;;;;;;;;16.00;16.00;;;;;23.22;41.09;100134.71;110052;1251;23241;-39
2023/07/03 10:47:00;;;;;;;;;23.00;20.00;;;;;23.18;41.28;100135.23;110019;1266;18158;-40
2023/07/03 10:49:30;;;;;;;;;17.00;16.00;;;;;23.19;41.45;100135.10;110034;1266;20120;-42
2023/07/03 10:51:58;;;;;;;;;20.00;18.00;;;;;23.21;41.80;100135.59;109962;1250;21828;-40
2023/07/03 10:54:26;;;;;;;;;19.00;16.00;;;;;23.27;41.67;100134.05;110193;1265;21798;-40
2023/07/03 10:56:57;;;;;;;;;15.00;14.00;;;;;23.37;41.94;100131.55;110185;1265;18612;-40
2023/07/03 10:59:24;;;;;;;;;18.00;16.00;;;;;23.42;42.21;100133.19;110205;1250;21948;-41
2023/07/03 11:01:52;;;;;;;;;16.00;15.00;;;;;23.43;42.21;100132.77;110195;1265;19475;-41
2023/07/03 11:04:21;;;;;;;;;17.00;15.50;;;;;23.53;42.33;100126.55;110214;1265;18622;-41